sensor_id;sensor_type;location;lat;lon;timestamp;P1;durP1;ratioP1;P2;durP2;ratioP2
30707;SDS011;17458;48.958;8.284;2022-11-06T00:01:33;9.68;;;6.95;;
30707;SDS011;17458;48.958;8.284;2022-11-06T00:04:17;8.65;;;7.03;;
30707;SDS011;17458;48.958;8.284;2022-11-06T00:07:01;9.70;;;7.38;;
30707;SDS011;17458;48.958;8.284;2022-11-06T00:09:46;9.52;;;7.13;;
30707;SDS011;17458;48.958;8.284;2022-11-06T00:12:29;11.35;;;7.82;;
30707;SDS011;17458;48.958;8.284;2022-11-06T00:15:14;11.45;;;8.23;;
30707;SDS011;17458;48.958;8.284;2022-11-06T00:17:58;11.70;;;6.90;;
30707;SDS011;17458;48.958;8.284;2022-11-06T00:20:42;10.43;;;7.00;;
30707;SDS011;17458;48.958;8.284;2022-11-06T00:23:26;12.23;;;7.55;;
30707;SDS011;17458;48.958;8.284;2022-11-06T00:26:14;13.65;;;8.05;;
30707;SDS011;17458;48.958;8.284;2022-11-06T00:29:00;15.25;;;8.00;;
30707;SDS011;17458;48.958;8.284;2022-11-06T00:31:47;12.05;;;7.70;;
30707;SDS011;17458;48.958;8.284;2022-11-06T00:34:33;10.52;;;8.25;;
30707;SDS011;17458;48.958;8.284;2022-11-06T00:37:17;10.40;;;7.90;;
30707;SDS011;17458;48.958;8.284;2022-11-06T00:40:01;10.60;;;7.78;;
30707;SDS011;17458;48.958;8.284;2022-11-06T00:42:46;13.77;;;8.38;;
30707;SDS011;17458;48.958;8.284;2022-11-06T00:45:30;20.08;;;8.20;;
30707;SDS011;17458;48.958;8.284;2022-11-06T00:48:14;13.80;;;8.23;;
30707;SDS011;17458;48.958;8.284;2022-11-06T00:54:33;12.25;;;7.10;;
30707;SDS011;17458;48.958;8.284;2022-11-06T00:57:38;10.07;;;7.18;;
30707;SDS011;17458;48.958;8.284;2022-11-06T01:00:22;9.43;;;6.10;;
30707;SDS011;17458;48.958;8.284;2022-11-06T01:03:06;14.05;;;7.13;;
30707;SDS011;17458;48.958;8.284;2022-11-06T01:05:50;12.85;;;7.38;;
30707;SDS011;17458;48.958;8.284;2022-11-06T01:08:34;8.88;;;6.90;;
30707;SDS011;17458;48.958;8.284;2022-11-06T01:11:20;10.88;;;7.28;;
30707;SDS011;17458;48.958;8.284;2022-11-06T01:14:10;9.63;;;6.90;;
30707;SDS011;17458;48.958;8.284;2022-11-06T01:16:56;9.80;;;6.35;;
30707;SDS011;17458;48.958;8.284;2022-11-06T01:19:40;10.25;;;6.18;;
30707;SDS011;17458;48.958;8.284;2022-11-06T01:22:24;8.20;;;6.65;;
30707;SDS011;17458;48.958;8.284;2022-11-06T01:25:08;13.55;;;6.43;;
30707;SDS011;17458;48.958;8.284;2022-11-06T01:27:52;9.75;;;7.10;;
30707;SDS011;17458;48.958;8.284;2022-11-06T01:30:36;13.60;;;6.55;;
30707;SDS011;17458;48.958;8.284;2022-11-06T01:33:20;8.38;;;6.32;;
30707;SDS011;17458;48.958;8.284;2022-11-06T01:36:05;6.85;;;5.72;;
30707;SDS011;17458;48.958;8.284;2022-11-06T01:38:54;8.25;;;6.00;;
30707;SDS011;17458;48.958;8.284;2022-11-06T01:41:42;6.68;;;5.97;;
30707;SDS011;17458;48.958;8.284;2022-11-06T01:47:20;12.13;;;5.80;;
30707;SDS011;17458;48.958;8.284;2022-11-06T01:50:09;12.02;;;5.72;;
30707;SDS011;17458;48.958;8.284;2022-11-06T01:52:55;9.45;;;5.53;;
30707;SDS011;17458;48.958;8.284;2022-11-06T01:55:45;7.60;;;5.43;;
30707;SDS011;17458;48.958;8.284;2022-11-06T01:58:32;9.52;;;6.05;;
30707;SDS011;17458;48.958;8.284;2022-11-06T02:01:19;9.73;;;5.45;;
30707;SDS011;17458;48.958;8.284;2022-11-06T02:04:06;6.75;;;5.55;;
30707;SDS011;17458;48.958;8.284;2022-11-06T02:06:58;6.55;;;5.13;;
30707;SDS011;17458;48.958;8.284;2022-11-06T02:09:44;15.55;;;7.47;;
30707;SDS011;17458;48.958;8.284;2022-11-06T02:12:37;13.40;;;8.90;;
30707;SDS011;17458;48.958;8.284;2022-11-06T02:27:29;10.73;;;5.95;;
30707;SDS011;17458;48.958;8.284;2022-11-06T02:30:15;7.50;;;5.65;;
30707;SDS011;17458;48.958;8.284;2022-11-06T02:33:05;9.20;;;5.55;;
30707;SDS011;17458;48.958;8.284;2022-11-06T02:35:56;6.10;;;5.20;;
30707;SDS011;17458;48.958;8.284;2022-11-06T02:38:50;6.75;;;5.22;;
30707;SDS011;17458;48.958;8.284;2022-11-06T02:41:41;6.22;;;5.63;;
30707;SDS011;17458;48.958;8.284;2022-11-06T02:44:28;6.18;;;5.00;;
30707;SDS011;17458;48.958;8.284;2022-11-06T02:47:17;7.80;;;5.28;;
30707;SDS011;17458;48.958;8.284;2022-11-06T02:50:04;7.80;;;4.85;;
30707;SDS011;17458;48.958;8.284;2022-11-06T02:52:55;6.60;;;5.55;;
30707;SDS011;17458;48.958;8.284;2022-11-06T02:55:58;10.13;;;5.93;;
30707;SDS011;17458;48.958;8.284;2022-11-06T02:59:03;7.63;;;4.93;;
30707;SDS011;17458;48.958;8.284;2022-11-06T03:01:56;5.65;;;5.00;;
30707;SDS011;17458;48.958;8.284;2022-11-06T03:04:54;8.60;;;5.05;;
30707;SDS011;17458;48.958;8.284;2022-11-06T03:08:01;9.18;;;5.30;;
30707;SDS011;17458;48.958;8.284;2022-11-06T03:10:55;8.48;;;5.05;;
30707;SDS011;17458;48.958;8.284;2022-11-06T03:19:37;8.43;;;5.43;;
30707;SDS011;17458;48.958;8.284;2022-11-06T03:22:32;10.88;;;5.40;;
30707;SDS011;17458;48.958;8.284;2022-11-06T03:25:24;7.85;;;5.57;;
30707;SDS011;17458;48.958;8.284;2022-11-06T03:28:30;9.63;;;6.22;;
30707;SDS011;17458;48.958;8.284;2022-11-06T03:31:18;8.90;;;5.68;;
30707;SDS011;17458;48.958;8.284;2022-11-06T03:34:11;8.25;;;6.43;;
30707;SDS011;17458;48.958;8.284;2022-11-06T03:37:08;6.57;;;5.47;;
30707;SDS011;17458;48.958;8.284;2022-11-06T03:39:58;8.63;;;6.10;;
30707;SDS011;17458;48.958;8.284;2022-11-06T03:42:47;8.10;;;5.55;;
30707;SDS011;17458;48.958;8.284;2022-11-06T03:45:34;7.50;;;6.53;;
30707;SDS011;17458;48.958;8.284;2022-11-06T03:48:29;6.38;;;5.35;;
30707;SDS011;17458;48.958;8.284;2022-11-06T03:51:19;8.95;;;6.43;;
30707;SDS011;17458;48.958;8.284;2022-11-06T03:54:21;7.50;;;5.90;;
30707;SDS011;17458;48.958;8.284;2022-11-06T03:57:10;8.35;;;6.30;;
30707;SDS011;17458;48.958;8.284;2022-11-06T04:00:03;16.17;;;7.43;;
30707;SDS011;17458;48.958;8.284;2022-11-06T04:02:56;8.23;;;6.35;;
30707;SDS011;17458;48.958;8.284;2022-11-06T04:05:58;16.42;;;6.13;;
30707;SDS011;17458;48.958;8.284;2022-11-06T04:08:47;8.23;;;6.10;;
30707;SDS011;17458;48.958;8.284;2022-11-06T04:11:54;12.25;;;6.45;;
30707;SDS011;17458;48.958;8.284;2022-11-06T04:15:00;10.25;;;7.05;;
30707;SDS011;17458;48.958;8.284;2022-11-06T04:17:44;8.88;;;6.13;;
30707;SDS011;17458;48.958;8.284;2022-11-06T04:20:32;11.10;;;7.10;;
30707;SDS011;17458;48.958;8.284;2022-11-06T04:27:13;7.72;;;5.07;;
30707;SDS011;17458;48.958;8.284;2022-11-06T04:30:08;9.85;;;5.53;;
30707;SDS011;17458;48.958;8.284;2022-11-06T04:36:05;6.40;;;5.75;;
30707;SDS011;17458;48.958;8.284;2022-11-06T04:44:44;8.27;;;6.30;;
30707;SDS011;17458;48.958;8.284;2022-11-06T04:47:32;9.27;;;6.35;;
30707;SDS011;17458;48.958;8.284;2022-11-06T04:50:19;69.28;;;9.32;;
30707;SDS011;17458;48.958;8.284;2022-11-06T04:53:06;154.95;;;10.85;;
30707;SDS011;17458;48.958;8.284;2022-11-06T04:55:54;118.32;;;11.93;;
30707;SDS011;17458;48.958;8.284;2022-11-06T04:58:39;124.03;;;11.02;;
30707;SDS011;17458;48.958;8.284;2022-11-06T05:01:23;157.75;;;11.57;;
30707;SDS011;17458;48.958;8.284;2022-11-06T05:04:07;144.40;;;11.85;;
30707;SDS011;17458;48.958;8.284;2022-11-06T05:06:51;96.38;;;11.30;;
30707;SDS011;17458;48.958;8.284;2022-11-06T05:09:35;104.30;;;9.48;;
30707;SDS011;17458;48.958;8.284;2022-11-06T05:12:19;99.78;;;10.32;;
30707;SDS011;17458;48.958;8.284;2022-11-06T05:15:03;147.73;;;11.52;;
30707;SDS011;17458;48.958;8.284;2022-11-06T05:17:47;108.18;;;12.00;;
30707;SDS011;17458;48.958;8.284;2022-11-06T05:20:31;145.55;;;11.63;;
30707;SDS011;17458;48.958;8.284;2022-11-06T05:23:16;136.75;;;10.70;;
30707;SDS011;17458;48.958;8.284;2022-11-06T05:26:00;141.38;;;13.65;;
30707;SDS011;17458;48.958;8.284;2022-11-06T05:28:44;197.23;;;13.18;;
30707;SDS011;17458;48.958;8.284;2022-11-06T05:31:28;215.35;;;13.25;;
30707;SDS011;17458;48.958;8.284;2022-11-06T05:34:12;197.40;;;14.00;;
30707;SDS011;17458;48.958;8.284;2022-11-06T05:36:56;140.95;;;12.52;;
30707;SDS011;17458;48.958;8.284;2022-11-06T05:39:41;216.48;;;14.25;;
30707;SDS011;17458;48.958;8.284;2022-11-06T05:42:25;182.23;;;14.82;;
30707;SDS011;17458;48.958;8.284;2022-11-06T05:45:09;192.55;;;14.85;;
30707;SDS011;17458;48.958;8.284;2022-11-06T05:47:54;113.53;;;13.07;;
30707;SDS011;17458;48.958;8.284;2022-11-06T05:50:38;179.32;;;15.15;;
30707;SDS011;17458;48.958;8.284;2022-11-06T05:53:32;114.13;;;13.18;;
30707;SDS011;17458;48.958;8.284;2022-11-06T05:56:18;118.40;;;12.30;;
30707;SDS011;17458;48.958;8.284;2022-11-06T05:59:02;169.75;;;12.10;;
30707;SDS011;17458;48.958;8.284;2022-11-06T06:01:46;163.30;;;13.48;;
30707;SDS011;17458;48.958;8.284;2022-11-06T06:04:30;123.25;;;12.20;;
30707;SDS011;17458;48.958;8.284;2022-11-06T06:07:14;89.10;;;11.23;;
30707;SDS011;17458;48.958;8.284;2022-11-06T06:09:58;63.67;;;12.02;;
30707;SDS011;17458;48.958;8.284;2022-11-06T06:12:41;58.15;;;8.57;;
30707;SDS011;17458;48.958;8.284;2022-11-06T06:15:25;75.57;;;10.43;;
30707;SDS011;17458;48.958;8.284;2022-11-06T06:18:09;79.30;;;10.00;;
30707;SDS011;17458;48.958;8.284;2022-11-06T06:20:55;38.17;;;9.23;;
30707;SDS011;17458;48.958;8.284;2022-11-06T06:23:40;19.30;;;8.95;;
30707;SDS011;17458;48.958;8.284;2022-11-06T06:26:24;21.15;;;7.60;;
30707;SDS011;17458;48.958;8.284;2022-11-06T06:29:09;21.30;;;7.82;;
30707;SDS011;17458;48.958;8.284;2022-11-06T06:31:53;23.17;;;8.38;;
30707;SDS011;17458;48.958;8.284;2022-11-06T06:34:36;9.82;;;8.07;;
30707;SDS011;17458;48.958;8.284;2022-11-06T06:37:20;11.60;;;7.53;;
30707;SDS011;17458;48.958;8.284;2022-11-06T06:40:04;19.00;;;7.68;;
30707;SDS011;17458;48.958;8.284;2022-11-06T06:42:49;9.25;;;6.55;;
30707;SDS011;17458;48.958;8.284;2022-11-06T06:45:33;6.63;;;5.93;;
30707;SDS011;17458;48.958;8.284;2022-11-06T06:48:17;7.13;;;5.77;;
30707;SDS011;17458;48.958;8.284;2022-11-06T06:51:01;8.93;;;6.82;;
30707;SDS011;17458;48.958;8.284;2022-11-06T06:53:45;9.47;;;7.30;;
30707;SDS011;17458;48.958;8.284;2022-11-06T06:56:29;9.93;;;8.07;;
30707;SDS011;17458;48.958;8.284;2022-11-06T06:59:13;10.30;;;7.95;;
30707;SDS011;17458;48.958;8.284;2022-11-06T07:01:58;12.27;;;8.33;;
30707;SDS011;17458;48.958;8.284;2022-11-06T07:04:42;52.22;;;13.15;;
30707;SDS011;17458;48.958;8.284;2022-11-06T07:07:26;58.73;;;13.13;;
30707;SDS011;17458;48.958;8.284;2022-11-06T07:10:10;182.95;;;16.95;;
30707;SDS011;17458;48.958;8.284;2022-11-06T07:12:54;134.77;;;15.70;;
30707;SDS011;17458;48.958;8.284;2022-11-06T07:15:38;29.48;;;12.63;;
30707;SDS011;17458;48.958;8.284;2022-11-06T07:18:22;43.13;;;12.27;;
30707;SDS011;17458;48.958;8.284;2022-11-06T07:21:08;21.92;;;12.13;;
30707;SDS011;17458;48.958;8.284;2022-11-06T07:23:54;19.90;;;14.27;;
30707;SDS011;17458;48.958;8.284;2022-11-06T07:26:38;17.15;;;11.65;;
30707;SDS011;17458;48.958;8.284;2022-11-06T07:29:22;28.65;;;10.65;;
30707;SDS011;17458;48.958;8.284;2022-11-06T07:32:09;25.27;;;10.60;;
30707;SDS011;17458;48.958;8.284;2022-11-06T07:34:53;17.10;;;10.13;;
30707;SDS011;17458;48.958;8.284;2022-11-06T07:37:37;13.23;;;10.02;;
30707;SDS011;17458;48.958;8.284;2022-11-06T07:40:21;17.88;;;10.13;;
30707;SDS011;17458;48.958;8.284;2022-11-06T07:43:06;17.92;;;11.70;;
30707;SDS011;17458;48.958;8.284;2022-11-06T07:45:51;17.35;;;9.25;;
30707;SDS011;17458;48.958;8.284;2022-11-06T07:48:35;11.25;;;8.32;;
30707;SDS011;17458;48.958;8.284;2022-11-06T07:51:20;11.57;;;8.35;;
30707;SDS011;17458;48.958;8.284;2022-11-06T07:54:03;19.50;;;11.15;;
30707;SDS011;17458;48.958;8.284;2022-11-06T07:56:48;11.10;;;6.90;;
30707;SDS011;17458;48.958;8.284;2022-11-06T07:59:32;12.57;;;7.60;;
30707;SDS011;17458;48.958;8.284;2022-11-06T08:02:17;15.77;;;8.70;;
30707;SDS011;17458;48.958;8.284;2022-11-06T08:05:00;10.98;;;9.18;;
30707;SDS011;17458;48.958;8.284;2022-11-06T08:07:44;12.75;;;9.57;;
30707;SDS011;17458;48.958;8.284;2022-11-06T08:10:28;11.88;;;9.07;;
30707;SDS011;17458;48.958;8.284;2022-11-06T08:13:13;12.10;;;9.38;;
30707;SDS011;17458;48.958;8.284;2022-11-06T08:16:01;13.95;;;9.73;;
30707;SDS011;17458;48.958;8.284;2022-11-06T08:18:47;12.93;;;8.80;;
30707;SDS011;17458;48.958;8.284;2022-11-06T08:21:30;16.50;;;9.25;;
30707;SDS011;17458;48.958;8.284;2022-11-06T08:24:15;17.25;;;9.80;;
30707;SDS011;17458;48.958;8.284;2022-11-06T08:26:58;11.98;;;8.60;;
30707;SDS011;17458;48.958;8.284;2022-11-06T08:29:42;12.52;;;9.38;;
30707;SDS011;17458;48.958;8.284;2022-11-06T08:32:27;10.63;;;7.93;;
30707;SDS011;17458;48.958;8.284;2022-11-06T08:35:11;11.35;;;8.63;;
30707;SDS011;17458;48.958;8.284;2022-11-06T08:37:55;10.02;;;8.02;;
30707;SDS011;17458;48.958;8.284;2022-11-06T08:40:39;10.35;;;7.78;;
30707;SDS011;17458;48.958;8.284;2022-11-06T08:43:23;9.70;;;7.38;;
30707;SDS011;17458;48.958;8.284;2022-11-06T08:46:09;14.68;;;9.00;;
30707;SDS011;17458;48.958;8.284;2022-11-06T08:48:54;14.30;;;7.40;;
30707;SDS011;17458;48.958;8.284;2022-11-06T08:51:38;15.35;;;8.68;;
30707;SDS011;17458;48.958;8.284;2022-11-06T08:54:22;14.75;;;8.68;;
30707;SDS011;17458;48.958;8.284;2022-11-06T08:57:06;17.90;;;8.77;;
30707;SDS011;17458;48.958;8.284;2022-11-06T08:59:50;11.80;;;8.68;;
30707;SDS011;17458;48.958;8.284;2022-11-06T09:02:34;11.20;;;8.88;;
30707;SDS011;17458;48.958;8.284;2022-11-06T09:05:18;10.88;;;9.27;;
30707;SDS011;17458;48.958;8.284;2022-11-06T09:08:02;10.75;;;8.40;;
30707;SDS011;17458;48.958;8.284;2022-11-06T09:10:47;11.38;;;8.85;;
30707;SDS011;17458;48.958;8.284;2022-11-06T09:13:31;12.60;;;9.05;;
30707;SDS011;17458;48.958;8.284;2022-11-06T09:16:15;11.32;;;8.98;;
30707;SDS011;17458;48.958;8.284;2022-11-06T09:18:59;10.48;;;8.15;;
30707;SDS011;17458;48.958;8.284;2022-11-06T09:21:43;13.68;;;9.70;;
30707;SDS011;17458;48.958;8.284;2022-11-06T09:24:27;11.68;;;8.45;;
30707;SDS011;17458;48.958;8.284;2022-11-06T09:27:12;12.32;;;8.88;;
30707;SDS011;17458;48.958;8.284;2022-11-06T09:29:55;8.10;;;7.00;;
30707;SDS011;17458;48.958;8.284;2022-11-06T09:32:46;9.38;;;7.22;;
30707;SDS011;17458;48.958;8.284;2022-11-06T09:35:33;12.68;;;7.25;;
30707;SDS011;17458;48.958;8.284;2022-11-06T09:38:17;12.63;;;7.22;;
30707;SDS011;17458;48.958;8.284;2022-11-06T09:41:02;8.57;;;7.60;;
30707;SDS011;17458;48.958;8.284;2022-11-06T09:46:45;12.15;;;7.68;;
30707;SDS011;17458;48.958;8.284;2022-11-06T09:49:34;14.32;;;7.38;;
30707;SDS011;17458;48.958;8.284;2022-11-06T09:52:32;11.68;;;8.07;;
30707;SDS011;17458;48.958;8.284;2022-11-06T09:55:30;12.73;;;8.10;;
30707;SDS011;17458;48.958;8.284;2022-11-06T09:58:25;7.95;;;6.57;;
30707;SDS011;17458;48.958;8.284;2022-11-06T10:01:23;8.25;;;6.15;;
30707;SDS011;17458;48.958;8.284;2022-11-06T10:04:23;8.77;;;6.82;;
30707;SDS011;17458;48.958;8.284;2022-11-06T10:07:24;15.13;;;6.90;;
30707;SDS011;17458;48.958;8.284;2022-11-06T10:10:28;9.30;;;7.35;;
30707;SDS011;17458;48.958;8.284;2022-11-06T10:24:57;10.02;;;7.72;;
30707;SDS011;17458;48.958;8.284;2022-11-06T10:27:47;10.68;;;7.20;;
30707;SDS011;17458;48.958;8.284;2022-11-06T10:31:07;12.20;;;7.13;;
30707;SDS011;17458;48.958;8.284;2022-11-06T10:34:11;6.93;;;5.95;;
30707;SDS011;17458;48.958;8.284;2022-11-06T10:36:59;9.27;;;6.43;;
30707;SDS011;17458;48.958;8.284;2022-11-06T10:40:04;9.45;;;7.30;;
30707;SDS011;17458;48.958;8.284;2022-11-06T10:42:58;8.75;;;6.28;;
30707;SDS011;17458;48.958;8.284;2022-11-06T10:58:17;6.88;;;5.50;;
30707;SDS011;17458;48.958;8.284;2022-11-06T11:01:05;6.53;;;5.38;;
30707;SDS011;17458;48.958;8.284;2022-11-06T11:03:55;10.43;;;6.45;;
30707;SDS011;17458;48.958;8.284;2022-11-06T11:06:39;11.27;;;5.97;;
30707;SDS011;17458;48.958;8.284;2022-11-06T11:09:30;7.47;;;5.75;;
30707;SDS011;17458;48.958;8.284;2022-11-06T11:12:28;7.57;;;5.20;;
30707;SDS011;17458;48.958;8.284;2022-11-06T11:15:16;7.00;;;5.15;;
30707;SDS011;17458;48.958;8.284;2022-11-06T11:21:18;8.43;;;4.47;;
30707;SDS011;17458;48.958;8.284;2022-11-06T11:24:08;5.53;;;4.00;;
30707;SDS011;17458;48.958;8.284;2022-11-06T11:29:49;6.45;;;4.25;;
30707;SDS011;17458;48.958;8.284;2022-11-06T11:32:33;4.88;;;3.83;;
30707;SDS011;17458;48.958;8.284;2022-11-06T11:35:19;8.10;;;3.92;;
30707;SDS011;17458;48.958;8.284;2022-11-06T11:38:12;7.97;;;4.18;;
30707;SDS011;17458;48.958;8.284;2022-11-06T11:41:04;6.90;;;3.42;;
30707;SDS011;17458;48.958;8.284;2022-11-06T11:46:54;6.70;;;3.70;;
30707;SDS011;17458;48.958;8.284;2022-11-06T11:49:38;9.38;;;4.20;;
30707;SDS011;17458;48.958;8.284;2022-11-06T11:52:22;6.88;;;4.53;;
30707;SDS011;17458;48.958;8.284;2022-11-06T11:55:13;5.35;;;3.60;;
30707;SDS011;17458;48.958;8.284;2022-11-06T11:58:02;4.75;;;3.00;;
30707;SDS011;17458;48.958;8.284;2022-11-06T12:01:29;3.42;;;3.13;;
30707;SDS011;17458;48.958;8.284;2022-11-06T12:03:57;6.80;;;3.65;;
30707;SDS011;17458;48.958;8.284;2022-11-06T12:06:49;6.38;;;3.30;;
30707;SDS011;17458;48.958;8.284;2022-11-06T12:09:39;5.25;;;3.20;;
30707;SDS011;17458;48.958;8.284;2022-11-06T12:12:30;4.85;;;3.33;;
30707;SDS011;17458;48.958;8.284;2022-11-06T12:15:17;5.05;;;3.75;;
30707;SDS011;17458;48.958;8.284;2022-11-06T12:18:15;5.90;;;3.65;;
30707;SDS011;17458;48.958;8.284;2022-11-06T12:21:06;4.97;;;3.92;;
30707;SDS011;17458;48.958;8.284;2022-11-06T12:24:08;4.60;;;3.90;;
30707;SDS011;17458;48.958;8.284;2022-11-06T12:27:10;7.43;;;4.20;;
30707;SDS011;17458;48.958;8.284;2022-11-06T12:30:04;5.13;;;4.20;;
30707;SDS011;17458;48.958;8.284;2022-11-06T12:33:09;9.95;;;5.03;;
30707;SDS011;17458;48.958;8.284;2022-11-06T12:36:01;7.22;;;5.22;;
30707;SDS011;17458;48.958;8.284;2022-11-06T12:39:00;7.70;;;4.93;;
30707;SDS011;17458;48.958;8.284;2022-11-06T12:41:49;8.85;;;4.75;;
30707;SDS011;17458;48.958;8.284;2022-11-06T12:44:35;5.32;;;4.50;;
30707;SDS011;17458;48.958;8.284;2022-11-06T12:47:23;7.55;;;4.28;;
30707;SDS011;17458;48.958;8.284;2022-11-06T12:56:14;6.15;;;4.63;;
30707;SDS011;17458;48.958;8.284;2022-11-06T12:59:13;11.38;;;5.47;;
30707;SDS011;17458;48.958;8.284;2022-11-06T13:08:28;12.82;;;7.45;;
30707;SDS011;17458;48.958;8.284;2022-11-06T13:11:29;9.30;;;7.45;;
30707;SDS011;17458;48.958;8.284;2022-11-06T13:14:36;9.48;;;7.60;;
30707;SDS011;17458;48.958;8.284;2022-11-06T13:17:34;10.75;;;8.40;;
30707;SDS011;17458;48.958;8.284;2022-11-06T13:20:34;11.05;;;8.73;;
30707;SDS011;17458;48.958;8.284;2022-11-06T13:23:30;10.65;;;8.98;;
30707;SDS011;17458;48.958;8.284;2022-11-06T13:26:23;11.05;;;8.60;;
30707;SDS011;17458;48.958;8.284;2022-11-06T13:29:16;13.73;;;9.30;;
30707;SDS011;17458;48.958;8.284;2022-11-06T13:32:03;11.60;;;9.50;;
30707;SDS011;17458;48.958;8.284;2022-11-06T13:34:53;12.02;;;8.88;;
30707;SDS011;17458;48.958;8.284;2022-11-06T13:37:40;11.60;;;8.55;;
30707;SDS011;17458;48.958;8.284;2022-11-06T13:40:29;12.57;;;8.98;;
30707;SDS011;17458;48.958;8.284;2022-11-06T13:46:25;9.25;;;8.25;;
30707;SDS011;17458;48.958;8.284;2022-11-06T13:49:28;13.65;;;9.48;;
30707;SDS011;17458;48.958;8.284;2022-11-06T13:55:06;13.73;;;8.07;;
30707;SDS011;17458;48.958;8.284;2022-11-06T14:01:30;10.85;;;7.75;;
30707;SDS011;17458;48.958;8.284;2022-11-06T14:07:32;11.20;;;9.60;;
30707;SDS011;17458;48.958;8.284;2022-11-06T14:10:18;14.77;;;9.40;;
30707;SDS011;17458;48.958;8.284;2022-11-06T14:13:05;12.25;;;9.30;;
30707;SDS011;17458;48.958;8.284;2022-11-06T14:15:50;14.23;;;9.77;;
30707;SDS011;17458;48.958;8.284;2022-11-06T14:18:43;14.82;;;11.15;;
30707;SDS011;17458;48.958;8.284;2022-11-06T14:22:15;17.45;;;10.77;;
30707;SDS011;17458;48.958;8.284;2022-11-06T14:24:52;13.43;;;10.25;;
30707;SDS011;17458;48.958;8.284;2022-11-06T14:33:55;17.67;;;10.32;;
30707;SDS011;17458;48.958;8.284;2022-11-06T14:36:40;16.85;;;11.10;;
30707;SDS011;17458;48.958;8.284;2022-11-06T14:42:40;10.85;;;8.35;;
30707;SDS011;17458;48.958;8.284;2022-11-06T14:45:27;11.75;;;8.55;;
30707;SDS011;17458;48.958;8.284;2022-11-06T14:48:11;14.45;;;8.80;;
30707;SDS011;17458;48.958;8.284;2022-11-06T14:51:09;12.73;;;8.13;;
30707;SDS011;17458;48.958;8.284;2022-11-06T14:53:55;12.80;;;8.45;;
30707;SDS011;17458;48.958;8.284;2022-11-06T14:56:42;13.20;;;8.02;;
30707;SDS011;17458;48.958;8.284;2022-11-06T14:59:33;19.00;;;9.95;;
30707;SDS011;17458;48.958;8.284;2022-11-06T15:02:21;21.25;;;13.40;;
30707;SDS011;17458;48.958;8.284;2022-11-06T15:05:12;14.02;;;9.95;;
30707;SDS011;17458;48.958;8.284;2022-11-06T15:08:00;10.32;;;8.50;;
30707;SDS011;17458;48.958;8.284;2022-11-06T15:13:28;15.20;;;10.43;;
30707;SDS011;17458;48.958;8.284;2022-11-06T15:16:13;17.15;;;10.48;;
30707;SDS011;17458;48.958;8.284;2022-11-06T15:19:05;17.15;;;9.05;;
30707;SDS011;17458;48.958;8.284;2022-11-06T15:22:03;16.33;;;9.18;;
30707;SDS011;17458;48.958;8.284;2022-11-06T15:28:02;15.45;;;8.27;;
30707;SDS011;17458;48.958;8.284;2022-11-06T15:30:56;13.95;;;8.23;;
30707;SDS011;17458;48.958;8.284;2022-11-06T15:36:42;13.15;;;7.50;;
30707;SDS011;17458;48.958;8.284;2022-11-06T15:39:37;10.45;;;7.85;;
30707;SDS011;17458;48.958;8.284;2022-11-06T15:42:24;8.02;;;6.88;;
30707;SDS011;17458;48.958;8.284;2022-11-06T15:48:00;8.10;;;6.25;;
30707;SDS011;17458;48.958;8.284;2022-11-06T15:50:46;8.13;;;6.35;;
30707;SDS011;17458;48.958;8.284;2022-11-06T15:53:31;7.47;;;6.22;;
30707;SDS011;17458;48.958;8.284;2022-11-06T15:56:15;10.68;;;6.43;;
30707;SDS011;17458;48.958;8.284;2022-11-06T15:59:10;12.10;;;8.23;;
30707;SDS011;17458;48.958;8.284;2022-11-06T16:01:57;10.18;;;6.55;;
30707;SDS011;17458;48.958;8.284;2022-11-06T16:04:48;7.63;;;6.78;;
30707;SDS011;17458;48.958;8.284;2022-11-06T16:07:32;11.77;;;6.35;;
30707;SDS011;17458;48.958;8.284;2022-11-06T16:10:18;10.10;;;6.40;;
30707;SDS011;17458;48.958;8.284;2022-11-06T16:13:03;9.43;;;6.43;;
30707;SDS011;17458;48.958;8.284;2022-11-06T16:15:52;9.77;;;6.43;;
30707;SDS011;17458;48.958;8.284;2022-11-06T16:18:39;10.45;;;7.03;;
30707;SDS011;17458;48.958;8.284;2022-11-06T16:21:28;12.60;;;9.15;;
30707;SDS011;17458;48.958;8.284;2022-11-06T16:24:17;12.82;;;9.52;;
30707;SDS011;17458;48.958;8.284;2022-11-06T16:27:02;30.00;;;15.48;;
30707;SDS011;17458;48.958;8.284;2022-11-06T16:29:55;34.03;;;16.30;;
30707;SDS011;17458;48.958;8.284;2022-11-06T16:32:41;39.45;;;18.27;;
30707;SDS011;17458;48.958;8.284;2022-11-06T16:35:32;32.78;;;16.02;;
30707;SDS011;17458;48.958;8.284;2022-11-06T16:41:16;17.52;;;11.70;;
30707;SDS011;17458;48.958;8.284;2022-11-06T16:47:11;14.98;;;10.43;;
30707;SDS011;17458;48.958;8.284;2022-11-06T16:49:58;13.68;;;9.48;;
30707;SDS011;17458;48.958;8.284;2022-11-06T16:52:44;15.55;;;10.65;;
30707;SDS011;17458;48.958;8.284;2022-11-06T16:55:36;16.83;;;11.52;;
30707;SDS011;17458;48.958;8.284;2022-11-06T16:58:20;23.17;;;12.60;;
30707;SDS011;17458;48.958;8.284;2022-11-06T17:01:05;16.70;;;11.30;;
30707;SDS011;17458;48.958;8.284;2022-11-06T17:04:32;17.48;;;12.02;;
30707;SDS011;17458;48.958;8.284;2022-11-06T17:07:11;15.80;;;11.40;;
30707;SDS011;17458;48.958;8.284;2022-11-06T17:13:18;11.18;;;9.23;;
30707;SDS011;17458;48.958;8.284;2022-11-06T17:16:05;13.40;;;9.05;;
30707;SDS011;17458;48.958;8.284;2022-11-06T17:18:50;11.43;;;8.38;;
30707;SDS011;17458;48.958;8.284;2022-11-06T17:21:34;10.77;;;8.02;;
30707;SDS011;17458;48.958;8.284;2022-11-06T17:24:18;9.55;;;7.18;;
30707;SDS011;17458;48.958;8.284;2022-11-06T17:27:03;8.77;;;7.40;;
30707;SDS011;17458;48.958;8.284;2022-11-06T17:29:49;12.88;;;7.82;;
30707;SDS011;17458;48.958;8.284;2022-11-06T17:32:34;13.68;;;7.65;;
30707;SDS011;17458;48.958;8.284;2022-11-06T17:35:18;11.73;;;8.32;;
30707;SDS011;17458;48.958;8.284;2022-11-06T17:38:02;8.85;;;7.40;;
30707;SDS011;17458;48.958;8.284;2022-11-06T17:40:47;10.23;;;7.45;;
30707;SDS011;17458;48.958;8.284;2022-11-06T17:43:31;12.88;;;9.07;;
30707;SDS011;17458;48.958;8.284;2022-11-06T17:46:14;19.63;;;11.73;;
30707;SDS011;17458;48.958;8.284;2022-11-06T17:48:59;14.52;;;8.57;;
30707;SDS011;17458;48.958;8.284;2022-11-06T17:51:45;11.68;;;8.27;;
30707;SDS011;17458;48.958;8.284;2022-11-06T17:54:42;11.27;;;8.30;;
30707;SDS011;17458;48.958;8.284;2022-11-06T17:57:26;12.25;;;8.35;;
30707;SDS011;17458;48.958;8.284;2022-11-06T18:00:10;11.40;;;8.05;;
30707;SDS011;17458;48.958;8.284;2022-11-06T18:02:55;11.18;;;7.22;;
30707;SDS011;17458;48.958;8.284;2022-11-06T18:05:40;13.50;;;9.20;;
30707;SDS011;17458;48.958;8.284;2022-11-06T18:08:23;20.35;;;13.48;;
30707;SDS011;17458;48.958;8.284;2022-11-06T18:11:08;18.10;;;11.57;;
30707;SDS011;17458;48.958;8.284;2022-11-06T18:13:54;15.40;;;9.23;;
30707;SDS011;17458;48.958;8.284;2022-11-06T18:16:39;13.90;;;8.38;;
30707;SDS011;17458;48.958;8.284;2022-11-06T18:19:24;10.55;;;7.68;;
30707;SDS011;17458;48.958;8.284;2022-11-06T18:22:08;13.13;;;8.25;;
30707;SDS011;17458;48.958;8.284;2022-11-06T18:24:52;10.15;;;8.18;;
30707;SDS011;17458;48.958;8.284;2022-11-06T18:27:36;12.93;;;8.52;;
30707;SDS011;17458;48.958;8.284;2022-11-06T18:30:20;12.85;;;9.52;;
30707;SDS011;17458;48.958;8.284;2022-11-06T18:33:04;15.30;;;9.65;;
30707;SDS011;17458;48.958;8.284;2022-11-06T18:35:48;12.82;;;9.15;;
30707;SDS011;17458;48.958;8.284;2022-11-06T18:38:32;11.80;;;8.70;;
30707;SDS011;17458;48.958;8.284;2022-11-06T18:41:18;25.15;;;9.95;;
30707;SDS011;17458;48.958;8.284;2022-11-06T18:44:04;13.55;;;8.48;;
30707;SDS011;17458;48.958;8.284;2022-11-06T18:46:48;14.80;;;8.85;;
30707;SDS011;17458;48.958;8.284;2022-11-06T18:49:32;10.85;;;8.48;;